Aérodrome :
LOGIN :

S'inscrire | Disclaimer

   EN    FR    IT 

 










Légende :    VFR   VFR Marginal   IFR   IFR Intensif   IFR Très Intensif
Visi : 
Plafond : 
>= 8 km
>= 3000ft
5 à 8 km
1000 à 3000 ft
1500m à 5 km
500 à 1000 ft
800 à 1500m
200 à 500 ft
< 800m
< 200 ft
Symboles :   Orages  Brouillard  Fortes neiges  Fortes précipitations  Vent > 20 kt
SIGMETs :   Divers  Orages  Givrage  Turbulence  Onde Orograph.  Cendres Volcan.






- Altitude de l'aérodrome : 20 ft
- Code IATA : TIV


LYTV - Tivat - Montenegro

DERNIER METAR :
  • 270700Z 13003KT 100V180 9999 FEW060 21/18 Q1017 NOSIG

METARs EXPIRÉS :
  • 270630Z VRB03KT 9999 FEW050 18/16 Q1017 NOSIG
  • 270600Z 08003KT CAVOK 16/16 Q1019 NOSIG
  • 270530Z VRB02KT 9999 FEW060 14/14 Q1018 NOSIG
  • 270500Z VRB01KT 9999 FEW050 13/13 Q1017 NOSIG
  • 270430Z VRB01KT CAVOK 13/13 Q1017 NOSIG

TAF COR TAF LYTV
Valide du 27 à 06h jusqu'au 28 à 06h UTC


270500Z 2706/2806 24008KT 9999 SCT040 TX26/2713Z TN15/2803Z
PROB30
TEMPO 2713/2718 TSRA FEW030CB SCT040



MET'MAP, la Météo Aéronautique d'un coup d'oeil ! - Copyright ORBIFLY Décembre 2007 - Disclaimer

ORBIFLY MET'MAP TEAM :

Programmation & Développement : Alexandra Zaïnal
Sur une idée originale de : Baudouin d'Aumeries
Assistance à la programmation : Marc-Olivier Méhu
Soutien technique & logistique : Manuel Goepfert

Contact : metmap@orbifly.com




SOURCES & CREDITS :

   NOAA